Time;durP1;ratioP1;P1;durP2;ratioP2;P2;SDS_P1;SDS_P2;PMS_P1;PMS_P2;Temp;Humidity;BMP_temperature;BMP_pressure;BME280_temperature;BME280_humidity;BME280_pressure;Samples;Min_cycle;Max_cycle;Signal;HPM_P1;HPM_P2
2024/04/06 00:02:06;;;;;;;0.30;0.30;;;14.80;1.00;;;;;;5003481;28;20178;-78
2024/04/06 00:04:33;;;;;;;0.65;0.28;;;14.80;1.00;;;;;;4970551;28;20057;-78
2024/04/06 00:06:59;;;;;;;0.30;0.10;;;14.80;1.00;;;;;;4970407;28;20108;-78
2024/04/06 00:09:25;;;;;;;0.55;0.30;;;14.70;1.00;;;;;;4986349;28;20441;-78
2024/04/06 00:11:51;;;;;;;0.73;0.32;;;14.70;1.00;;;;;;5003111;28;20054;-79
2024/04/06 00:14:19;;;;;;;0.38;0.30;;;14.70;1.00;;;;;;4987029;28;20053;-78
2024/04/06 00:16:45;;;;;;;1.02;0.50;;;14.70;1.00;;;;;;4987010;28;20064;-78
2024/04/06 00:19:12;;;;;;;0.43;0.30;;;14.70;1.00;;;;;;5002524;28;20519;-79
2024/04/06 00:21:37;;;;;;;0.75;0.45;;;14.70;1.00;;;;;;5002420;28;20500;-79
2024/04/06 00:24:03;;;;;;;0.20;0.20;;;14.70;1.00;;;;;;4986853;28;20060;-79
2024/04/06 00:26:29;;;;;;;0.65;0.43;;;14.70;1.00;;;;;;5002385;28;20060;-78
2024/04/06 00:28:55;;;;;;;0.52;0.32;;;14.80;1.00;;;;;;4987235;28;20060;-79
2024/04/06 00:31:21;;;;;;;0.28;0.20;;;14.80;1.00;;;;;;5019445;28;20637;-78
2024/04/06 00:33:47;;;;;;;0.30;0.30;;;14.80;1.00;;;;;;4987300;28;20107;-79
2024/04/06 00:36:13;;;;;;;0.47;0.43;;;14.80;1.00;;;;;;4986062;28;20061;-79
2024/04/06 00:38:39;;;;;;;0.20;0.20;;;14.90;1.00;;;;;;4970972;28;20046;-78
2024/04/06 00:41:05;;;;;;;0.32;0.25;;;14.90;1.00;;;;;;5002536;28;20064;-79
2024/04/06 00:43:32;;;;;;;0.85;0.40;;;14.90;1.00;;;;;;4970549;28;20054;-78
2024/04/06 00:45:58;;;;;;;0.55;0.40;;;15.00;1.00;;;;;;4967214;28;20516;-79
2024/04/06 00:48:24;;;;;;;1.70;0.82;;;15.00;99.90;;;;;;4967408;28;20062;-78
2024/04/06 00:50:51;;;;;;;0.40;0.30;;;15.00;99.90;;;;;;4966908;28;20049;-79
2024/04/06 00:53:17;;;;;;;0.57;0.32;;;15.10;99.90;;;;;;4998904;28;20133;-79
2024/04/06 00:55:43;;;;;;;0.30;0.17;;;15.10;99.90;;;;;;4986110;28;20491;-79
2024/04/06 00:58:10;;;;;;;0.55;0.40;;;15.10;99.90;;;;;;4970251;28;20381;-78
2024/04/06 01:00:36;;;;;;;0.52;0.40;;;15.10;99.90;;;;;;4970620;28;20061;-79
2024/04/06 01:03:02;;;;;;;0.40;0.25;;;15.10;99.90;;;;;;4970355;28;20994;-78
2024/04/06 01:05:28;;;;;;;0.50;0.30;;;15.10;99.90;;;;;;5002301;28;20076;-79
2024/04/06 01:07:54;;;;;;;1.88;0.50;;;15.10;99.90;;;;;;4985655;28;20500;-79
2024/04/06 01:10:20;;;;;;;0.80;0.60;;;15.10;99.90;;;;;;5002231;28;20057;-79
2024/04/06 01:12:46;;;;;;;0.30;0.22;;;15.10;99.90;;;;;;4970441;28;20068;-78
2024/04/06 01:15:12;;;;;;;0.38;0.32;;;15.10;99.90;;;;;;4985917;28;20057;-78
2024/04/06 01:17:38;;;;;;;0.73;0.40;;;15.10;99.90;;;;;;4970335;28;20091;-78
2024/04/06 01:20:06;;;;;;;0.45;0.30;;;15.00;99.90;;;;;;4970143;28;20393;-78
2024/04/06 01:22:33;;;;;;;0.20;0.20;;;15.00;99.90;;;;;;4986276;28;20046;-79
2024/04/06 01:24:59;;;;;;;0.50;0.40;;;15.00;99.90;;;;;;4985834;28;20734;-79
2024/04/06 01:27:25;;;;;;;0.68;0.38;;;15.00;99.90;;;;;;4963394;28;20050;-78
2024/04/06 01:29:51;;;;;;;0.57;0.50;;;15.00;99.90;;;;;;4984649;28;20054;-78
2024/04/06 01:32:16;;;;;;;0.25;0.25;;;15.00;99.90;;;;;;4975011;28;20517;-79
2024/04/06 01:34:42;;;;;;;0.45;0.40;;;15.00;99.90;;;;;;5007612;28;20054;-79
2024/04/06 01:37:08;;;;;;;0.57;0.50;;;15.00;99.90;;;;;;4992533;28;20057;-79
2024/04/06 01:39:34;;;;;;;0.45;0.32;;;15.00;99.90;;;;;;4993238;28;20042;-79
2024/04/06 01:42:00;;;;;;;0.40;0.30;;;15.00;99.90;;;;;;4992515;28;20140;-79
2024/04/06 01:44:26;;;;;;;0.47;0.30;;;15.10;99.90;;;;;;5009904;28;20053;-79
2024/04/06 01:46:52;;;;;;;0.80;0.50;;;15.10;99.90;;;;;;4993279;28;20053;-79
2024/04/06 01:49:18;;;;;;;0.40;0.40;;;15.10;99.90;;;;;;5009129;28;20061;-79
2024/04/06 01:51:44;;;;;;;0.52;0.30;;;15.10;99.90;;;;;;5008785;28;20646;-78
2024/04/06 01:54:10;;;;;;;0.98;0.50;;;15.10;99.90;;;;;;5009154;28;20049;-78
2024/04/06 01:56:36;;;;;;;0.43;0.38;;;15.10;99.90;;;;;;5025248;28;20060;-79
2024/04/06 01:59:02;;;;;;;0.70;0.40;;;15.10;99.90;;;;;;5025548;28;20128;-79
2024/04/06 02:01:29;;;;;;;1.27;0.50;;;15.10;99.90;;;;;;5025574;28;20053;-78
2024/04/06 02:03:54;;;;;;;0.55;0.38;;;15.10;99.90;;;;;;5009271;28;20659;-79
2024/04/06 02:06:20;;;;;;;0.90;0.47;;;15.10;99.90;;;;;;5008384;28;20050;-79
2024/04/06 02:08:46;;;;;;;1.38;0.50;;;15.10;99.90;;;;;;4992847;28;20490;-79
2024/04/06 02:11:12;;;;;;;1.55;0.65;;;15.10;99.90;;;;;;5008577;28;20057;-78
2024/04/06 02:13:38;;;;;;;0.43;0.43;;;15.20;99.90;;;;;;5009126;28;20102;-79
2024/04/06 02:16:04;;;;;;;0.70;0.50;;;15.20;99.90;;;;;;4992187;28;20513;-79
2024/04/06 02:18:30;;;;;;;0.45;0.45;;;15.20;99.90;;;;;;4993149;28;20433;-79
2024/04/06 02:20:56;;;;;;;0.80;0.45;;;15.20;99.90;;;;;;5024838;28;20515;-78
2024/04/06 02:23:23;;;;;;;1.40;0.50;;;15.20;99.90;;;;;;4991846;28;20046;-78
2024/04/06 02:25:51;;;;;;;0.50;0.40;;;15.30;99.90;;;;;;4988822;28;20069;-78
2024/04/06 02:28:18;;;;;;;0.65;0.40;;;15.30;99.90;;;;;;4989409;28;20112;-79
2024/04/06 02:30:44;;;;;;;0.75;0.45;;;15.30;99.90;;;;;;4973168;28;20054;-78
2024/04/06 02:33:10;;;;;;;0.40;0.35;;;15.20;99.90;;;;;;5008954;28;20105;-79
2024/04/06 02:35:36;;;;;;;0.60;0.30;;;15.20;99.90;;;;;;4972344;28;20058;-79
2024/04/06 02:38:02;;;;;;;0.55;0.55;;;15.20;99.90;;;;;;4988132;28;20060;-79
2024/04/06 02:40:28;;;;;;;0.55;0.45;;;15.10;99.90;;;;;;5005109;28;20060;-80
2024/04/06 02:42:54;;;;;;;1.05;0.60;;;15.10;99.90;;;;;;4995356;28;20461;-79
2024/04/06 02:45:19;;;;;;;0.68;0.43;;;15.10;99.90;;;;;;5008468;28;20049;-79
2024/04/06 02:47:46;;;;;;;0.65;0.50;;;15.00;99.90;;;;;;5008464;28;20064;-78
2024/04/06 02:50:12;;;;;;;0.43;0.40;;;15.00;99.90;;;;;;4992013;28;20186;-79
2024/04/06 02:52:38;;;;;;;0.70;0.50;;;15.00;99.90;;;;;;4992100;28;20056;-79
2024/04/06 02:55:07;;;;;;;1.02;0.50;;;14.90;99.90;;;;;;4991756;28;20053;-79
2024/04/06 02:57:33;;;;;;;0.88;0.50;;;14.90;99.90;;;;;;4975977;28;20049;-79
2024/04/06 02:59:59;;;;;;;0.63;0.38;;;14.90;99.90;;;;;;4975959;28;20072;-79
2024/04/06 03:02:25;;;;;;;0.65;0.40;;;14.80;99.90;;;;;;5008324;28;20061;-79
2024/04/06 03:04:51;;;;;;;1.13;0.63;;;14.80;99.90;;;;;;5008310;28;20092;-79
2024/04/06 03:07:17;;;;;;;1.05;0.73;;;14.80;99.90;;;;;;4991416;28;20580;-78
2024/04/06 03:09:42;;;;;;;1.00;0.57;;;14.80;99.90;;;;;;4991280;28;21009;-78
2024/04/06 03:12:08;;;;;;;0.40;0.40;;;14.80;99.90;;;;;;5007765;28;20104;-79
2024/04/06 03:14:35;;;;;;;0.47;0.35;;;14.80;99.90;;;;;;4991167;28;20103;-78
2024/04/06 03:17:00;;;;;;;0.40;0.40;;;14.80;99.90;;;;;;5024263;28;20053;-78
2024/04/06 03:19:26;;;;;;;0.73;0.50;;;14.80;99.90;;;;;;5007453;28;20049;-78
2024/04/06 03:21:52;;;;;;;0.38;0.30;;;14.70;99.90;;;;;;4991055;28;20054;-78
2024/04/06 03:24:18;;;;;;;0.65;0.40;;;14.80;99.90;;;;;;4990395;28;20068;-78
2024/04/06 03:26:44;;;;;;;0.30;0.28;;;14.70;99.90;;;;;;4991026;28;20053;-78
2024/04/06 03:29:10;;;;;;;0.75;0.40;;;14.80;99.90;;;;;;5007621;28;20057;-78
2024/04/06 03:31:36;;;;;;;0.95;0.40;;;14.80;99.90;;;;;;4991170;28;20056;-79
2024/04/06 03:34:02;;;;;;;0.40;0.40;;;14.80;99.90;;;;;;5007897;28;20061;-78
2024/04/06 03:36:28;;;;;;;0.60;0.40;;;14.80;99.90;;;;;;4990146;28;20634;-78
2024/04/06 03:38:54;;;;;;;0.57;0.40;;;14.80;99.90;;;;;;4990819;28;20054;-78
2024/04/06 03:41:20;;;;;;;0.55;0.40;;;14.70;99.90;;;;;;4989909;28;20054;-79
2024/04/06 03:43:46;;;;;;;0.50;0.43;;;14.70;99.90;;;;;;4991736;28;20059;-78
2024/04/06 03:46:12;;;;;;;0.90;0.43;;;14.70;99.90;;;;;;5007474;28;20049;-78
2024/04/06 03:48:38;;;;;;;0.38;0.35;;;14.70;99.90;;;;;;4990583;28;20065;-78
2024/04/06 03:51:04;;;;;;;0.40;0.30;;;14.70;99.90;;;;;;4991131;28;20140;-78
2024/04/06 03:53:40;;;;;;;0.45;0.40;;;14.70;99.90;;;;;;4973825;28;20880;-78
2024/04/06 03:56:06;;;;;;;0.20;0.20;;;14.70;99.90;;;;;;4976146;28;20057;-78
2024/04/06 03:58:32;;;;;;;1.13;0.60;;;14.60;99.90;;;;;;4974339;28;20061;-78
2024/04/06 04:00:57;;;;;;;0.85;0.40;;;14.60;99.40;;;;;;4991035;28;20111;-78
2024/04/06 04:03:23;;;;;;;0.30;0.30;;;14.60;99.60;;;;;;4987325;28;20635;-79
2024/04/06 04:05:49;;;;;;;0.85;0.50;;;14.50;99.90;;;;;;4981853;28;20050;-78
2024/04/06 04:08:15;;;;;;;0.98;0.50;;;14.50;99.50;;;;;;5022876;28;20115;-78
2024/04/06 04:10:41;;;;;;;0.40;0.40;;;14.50;99.20;;;;;;4974925;28;20057;-78
2024/04/06 04:13:11;;;;;;;0.30;0.30;;;14.50;99.90;;;;;;4974220;28;20543;-79
2024/04/06 04:15:37;;;;;;;0.85;0.40;;;14.40;99.90;;;;;;4991645;28;20103;-79
2024/04/06 04:18:04;;;;;;;0.45;0.40;;;14.40;99.90;;;;;;4990319;28;20417;-78
2024/04/06 04:20:30;;;;;;;0.55;0.40;;;14.40;99.90;;;;;;5006789;28;20103;-78
2024/04/06 04:22:56;;;;;;;0.98;0.50;;;14.30;99.90;;;;;;5006123;28;20461;-78
2024/04/06 04:25:22;;;;;;;0.43;0.38;;;14.30;99.90;;;;;;4974586;28;20456;-78
2024/04/06 04:27:49;;;;;;;1.13;0.50;;;14.30;99.90;;;;;;4989973;28;20061;-78
2024/04/06 04:30:15;;;;;;;2.03;0.90;;;14.30;99.90;;;;;;4991103;28;20057;-78
2024/04/06 04:32:42;;;;;;;0.57;0.52;;;14.30;99.90;;;;;;5006642;28;20578;-77
2024/04/06 04:35:08;;;;;;;0.47;0.30;;;14.20;99.90;;;;;;4973969;28;20050;-78
2024/04/06 04:37:33;;;;;;;1.05;0.60;;;14.20;99.90;;;;;;5005589;28;20064;-78
2024/04/06 04:40:00;;;;;;;0.75;0.57;;;14.20;99.90;;;;;;5006722;28;20056;-78
2024/04/06 04:42:26;;;;;;;0.47;0.40;;;14.20;99.90;;;;;;4974300;28;20617;-79
2024/04/06 04:44:52;;;;;;;1.65;0.50;;;14.20;99.90;;;;;;4991583;28;20057;-84
2024/04/06 04:47:20;;;;;;;0.77;0.60;;;14.20;99.90;;;;;;5007485;28;20623;-84
2024/04/06 04:49:45;;;;;;;0.50;0.50;;;14.20;99.90;;;;;;4990835;28;20054;-83
2024/04/06 04:52:11;;;;;;;0.68;0.50;;;14.20;99.90;;;;;;4990734;28;20049;-84
2024/04/06 04:54:37;;;;;;;1.20;0.90;;;14.20;99.70;;;;;;5006775;28;20143;-82
2024/04/06 04:57:03;;;;;;;0.98;0.70;;;14.20;98.90;;;;;;4982908;28;20478;-83
2024/04/06 04:59:29;;;;;;;0.80;0.55;;;14.20;97.70;;;;;;4990975;28;20049;-83
2024/04/06 05:01:55;;;;;;;0.73;0.50;;;14.20;97.00;;;;;;5006862;28;20049;-83
2024/04/06 05:04:20;;;;;;;0.50;0.47;;;14.20;98.10;;;;;;4987492;28;20485;-83
2024/04/06 05:06:47;;;;;;;0.80;0.50;;;14.10;97.80;;;;;;5007359;28;20478;-83
2024/04/06 05:09:15;;;;;;;0.88;0.40;;;14.10;96.40;;;;;;4988501;28;20414;-83
2024/04/06 05:11:41;;;;;;;1.63;0.25;;;14.10;96.40;;;;;;4985480;28;20053;-82
2024/04/06 05:14:07;;;;;;;0.68;0.45;;;14.10;95.50;;;;;;4991712;28;20053;-83
2024/04/06 05:16:33;;;;;;;0.77;0.50;;;14.10;95.10;;;;;;4987608;28;20743;-82
2024/04/06 05:18:59;;;;;;;0.45;0.35;;;14.10;93.90;;;;;;4987928;28;20057;-84
2024/04/06 05:21:24;;;;;;;0.45;0.38;;;14.10;93.80;;;;;;4987880;28;20069;-82
2024/04/06 05:23:52;;;;;;;0.35;0.30;;;14.10;93.30;;;;;;4990979;28;20057;-83
2024/04/06 05:26:18;;;;;;;0.73;0.50;;;14.10;92.90;;;;;;5006961;28;20419;-83
2024/04/06 05:28:44;;;;;;;1.05;0.40;;;14.10;92.50;;;;;;5007814;28;20702;-82
2024/04/06 05:31:11;;;;;;;2.17;0.50;;;14.10;91.90;;;;;;4991646;28;20061;-84
2024/04/06 05:33:36;;;;;;;1.20;0.52;;;14.10;91.10;;;;;;4976104;28;20050;-89
2024/04/06 05:36:05;;;;;;;1.13;0.40;;;14.20;90.00;;;;;;4976388;28;20064;-78
2024/04/06 05:38:31;;;;;;;0.60;0.50;;;14.20;88.90;;;;;;5022270;28;20068;-78
2024/04/06 05:40:58;;;;;;;0.40;0.40;;;14.20;85.70;;;;;;5022821;28;20064;-77
2024/04/06 05:43:24;;;;;;;0.45;0.45;;;14.30;84.00;;;;;;5021868;28;20083;-77
2024/04/06 05:45:59;;;;;;;1.02;0.60;;;14.30;80.20;;;;;;4990226;28;20069;-77
2024/04/06 05:48:25;;;;;;;0.65;0.50;;;14.40;78.10;;;;;;5006541;28;20065;-78
2024/04/06 05:50:51;;;;;;;1.15;0.60;;;14.50;76.10;;;;;;4989051;28;20056;-77
2024/04/06 05:53:16;;;;;;;2.10;0.73;;;14.50;75.80;;;;;;5004884;28;20092;-77
2024/04/06 05:55:42;;;;;;;0.85;0.70;;;14.50;73.20;;;;;;5005891;28;20046;-78
2024/04/06 05:58:08;;;;;;;0.98;0.60;;;14.50;72.50;;;;;;5009057;28;20085;-78
2024/04/06 06:00:34;;;;;;;1.00;0.60;;;14.60;71.90;;;;;;4999426;28;20137;-78
2024/04/06 06:03:00;;;;;;;0.63;0.40;;;14.60;70.90;;;;;;4988847;28;20416;-78
2024/04/06 06:05:26;;;;;;;0.63;0.50;;;14.50;70.90;;;;;;5005229;28;20061;-78
2024/04/06 06:07:52;;;;;;;0.93;0.50;;;14.60;71.90;;;;;;5004921;28;20079;-78
2024/04/06 06:10:20;;;;;;;0.70;0.40;;;14.60;68.50;;;;;;5021099;28;20053;-77
2024/04/06 06:12:46;;;;;;;0.90;0.40;;;14.70;66.30;;;;;;5020651;28;20041;-78
2024/04/06 06:15:12;;;;;;;0.80;0.65;;;14.70;65.50;;;;;;5004811;28;20459;-77
2024/04/06 06:17:40;;;;;;;0.60;0.60;;;14.80;62.80;;;;;;4984304;28;20128;-78
2024/04/06 06:20:07;;;;;;;1.10;0.60;;;14.80;62.40;;;;;;4995032;28;20061;-78
2024/04/06 06:22:33;;;;;;;1.63;0.70;;;14.90;61.90;;;;;;5004697;28;20057;-77
2024/04/06 06:24:59;;;;;;;1.33;0.77;;;14.90;59.60;;;;;;4987826;28;20489;-78
2024/04/06 06:27:25;;;;;;;1.35;0.60;;;14.90;58.40;;;;;;4971965;28;20156;-78
2024/04/06 06:29:51;;;;;;;1.20;0.82;;;15.00;57.90;;;;;;4972198;28;20506;-78
2024/04/06 06:32:17;;;;;;;0.85;0.50;;;15.00;54.40;;;;;;4988436;28;20061;-78
2024/04/06 06:34:44;;;;;;;1.20;0.60;;;15.10;51.90;;;;;;4985939;28;20056;-78
2024/04/06 06:37:09;;;;;;;1.42;0.60;;;15.10;51.20;;;;;;4969583;28;20069;-77
2024/04/06 06:39:35;;;;;;;0.50;0.40;;;15.20;50.90;;;;;;5003961;28;20081;-78
2024/04/06 06:42:01;;;;;;;1.23;0.75;;;15.20;48.60;;;;;;4985599;28;20066;-78
2024/04/06 06:44:27;;;;;;;1.42;0.82;;;15.30;45.10;;;;;;5005848;28;20259;-77
2024/04/06 06:46:53;;;;;;;1.05;0.68;;;15.40;44.30;;;;;;4990054;28;20111;-84
2024/04/06 06:49:20;;;;;;;0.50;0.50;;;15.60;36.80;;;;;;5007114;28;20057;-83
2024/04/06 06:51:47;;;;;;;0.70;0.55;;;15.70;34.50;;;;;;4970932;28;20500;-84
2024/04/06 06:54:14;;;;;;;0.93;0.50;;;15.80;24.90;;;;;;5022445;28;20049;-86
2024/04/06 06:56:43;;;;;;;0.73;0.50;;;15.90;22.40;;;;;;5007149;28;20838;-83
2024/04/06 06:59:09;;;;;;;0.95;0.40;;;16.00;20.00;;;;;;4984975;28;20058;-85
2024/04/06 07:01:35;;;;;;;0.98;0.70;;;16.10;19.50;;;;;;5005546;28;20064;-84
2024/04/06 07:04:01;;;;;;;0.88;0.57;;;16.20;16.10;;;;;;5005303;28;20198;-83
2024/04/06 07:06:27;;;;;;;1.48;0.70;;;16.20;13.80;;;;;;5019625;28;20400;-83
2024/04/06 07:08:52;;;;;;;1.65;0.80;;;16.30;9.80;;;;;;5003427;28;20053;-84
2024/04/06 07:11:19;;;;;;;0.95;0.70;;;16.30;9.00;;;;;;5000894;28;20058;-82
2024/04/06 07:13:45;;;;;;;1.27;0.85;;;16.40;10.00;;;;;;4984380;28;20066;-83
2024/04/06 07:16:11;;;;;;;1.38;0.82;;;16.50;6.50;;;;;;5020988;28;20126;-82
2024/04/06 07:18:40;;;;;;;0.88;0.65;;;16.60;2.10;;;;;;4984897;28;20053;-83
2024/04/06 07:21:13;;;;;;;0.55;0.52;;;16.70;1.00;;;;;;4985494;28;20065;-83
2024/04/06 07:23:39;;;;;;;1.25;0.70;;;16.80;1.00;;;;;;4981892;28;20053;-85
2024/04/06 07:26:05;;;;;;;1.25;0.70;;;16.80;1.00;;;;;;4972002;28;20065;-83
2024/04/06 07:28:31;;;;;;;3.13;0.80;;;16.90;1.00;;;;;;4987792;28;20061;-83
2024/04/06 07:30:58;;;;;;;1.73;0.75;;;16.90;1.00;;;;;;5003784;28;20049;-81
2024/04/06 07:33:23;;;;;;;1.45;0.70;;;17.00;1.00;;;;;;5000326;28;20077;-82
2024/04/06 07:35:49;;;;;;;2.38;0.77;;;17.00;1.00;;;;;;5019496;28;20053;-82
2024/04/06 07:38:15;;;;;;;1.38;0.55;;;17.10;1.00;;;;;;5002609;28;20064;-82
2024/04/06 07:40:41;;;;;;;1.38;0.85;;;17.10;1.00;;;;;;4983685;28;20058;-82
2024/04/06 07:43:07;;;;;;;1.17;0.60;;;17.10;1.00;;;;;;4983728;28;20080;-83
2024/04/06 07:45:33;;;;;;;1.83;1.02;;;17.10;1.00;;;;;;5003284;28;20496;-83
2024/04/06 07:47:59;;;;;;;1.33;0.70;;;17.20;1.00;;;;;;4986444;28;20115;-83
2024/04/06 07:50:24;;;;;;;3.05;0.75;;;17.20;1.00;;;;;;5019608;28;20543;-83
2024/04/06 07:52:50;;;;;;;1.27;0.75;;;17.20;1.00;;;;;;5002455;28;20536;-83
2024/04/06 07:55:16;;;;;;;0.95;0.47;;;17.30;1.00;;;;;;5002971;28;20045;-83
2024/04/06 07:57:44;;;;;;;0.98;0.80;;;17.30;1.00;;;;;;5002075;28;20057;-82
2024/04/06 08:00:11;;;;;;;1.63;0.65;;;17.20;1.00;;;;;;5004042;28;20072;-83
2024/04/06 08:02:37;;;;;;;1.08;0.75;;;17.30;1.00;;;;;;5019926;28;20057;-83
2024/04/06 08:05:05;;;;;;;0.80;0.52;;;17.30;1.00;;;;;;5002736;28;20394;-83
2024/04/06 08:07:31;;;;;;;1.17;0.70;;;17.40;1.00;;;;;;5002401;28;20061;-83
2024/04/06 08:09:58;;;;;;;0.43;0.43;;;17.40;1.00;;;;;;5001807;28;20053;-78
2024/04/06 08:12:24;;;;;;;0.60;0.50;;;17.50;1.00;;;;;;4986316;28;20061;-78
2024/04/06 08:14:50;;;;;;;1.90;0.70;;;17.50;1.00;;;;;;4983786;28;20058;-78
2024/04/06 08:17:16;;;;;;;1.23;0.60;;;17.70;1.00;;;;;;4982507;28;20085;-78
2024/04/06 08:19:42;;;;;;;1.02;0.68;;;17.70;1.00;;;;;;4998668;28;20537;-78
2024/04/06 08:22:08;;;;;;;1.38;0.98;;;17.80;1.00;;;;;;4977338;28;20107;-78
2024/04/06 08:24:34;;;;;;;0.60;0.60;;;17.90;1.00;;;;;;5000605;28;20125;-78
2024/04/06 08:27:00;;;;;;;1.02;0.70;;;17.90;1.00;;;;;;5002066;28;20060;-79
2024/04/06 08:29:26;;;;;;;2.50;0.80;;;18.00;1.00;;;;;;4969945;28;20057;-78
2024/04/06 08:31:52;;;;;;;1.00;0.68;;;18.10;1.00;;;;;;4969686;28;20144;-78
2024/04/06 08:34:18;;;;;;;0.98;0.43;;;18.20;1.00;;;;;;5002081;28;20053;-78
2024/04/06 08:36:44;;;;;;;0.65;0.30;;;18.30;1.00;;;;;;5000728;28;20114;-78
2024/04/06 08:39:10;;;;;;;1.23;0.43;;;18.40;1.00;;;;;;5000258;28;20049;-78
2024/04/06 08:41:36;;;;;;;0.80;0.50;;;18.40;1.00;;;;;;4981875;28;20100;-78
2024/04/06 08:44:02;;;;;;;1.00;0.60;;;18.50;1.00;;;;;;4996452;28;20420;-78
2024/04/06 08:46:28;;;;;;;0.70;0.50;;;18.60;1.00;;;;;;4982677;28;20757;-78
2024/04/06 08:48:54;;;;;;;0.52;0.50;;;18.60;1.00;;;;;;4983829;28;20053;-78
2024/04/06 08:51:23;;;;;;;1.20;0.60;;;18.60;1.00;;;;;;4968245;28;20564;-77
2024/04/06 08:53:49;;;;;;;1.02;0.60;;;18.70;1.00;;;;;;4969710;28;20049;-78
2024/04/06 08:56:15;;;;;;;1.83;0.70;;;18.70;1.00;;;;;;4981416;28;20588;-78
2024/04/06 08:58:42;;;;;;;0.90;0.60;;;18.70;1.00;;;;;;5024587;28;20057;-79
2024/04/06 09:01:08;;;;;;;0.80;0.40;;;18.80;1.00;;;;;;5000470;28;20058;-79
2024/04/06 09:03:34;;;;;;;1.77;0.60;;;18.80;1.00;;;;;;4984678;28;20541;-79
2024/04/06 09:06:00;;;;;;;1.17;0.68;;;18.80;7.30;;;;;;4985115;28;20050;-78
2024/04/06 09:08:26;;;;;;;0.80;0.40;;;18.80;8.20;;;;;;4985133;28;20069;-78
2024/04/06 09:10:57;;;;;;;1.13;0.55;;;18.90;5.30;;;;;;4982097;28;20054;-78
2024/04/06 09:13:23;;;;;;;1.92;0.55;;;18.90;4.40;;;;;;4990109;28;20408;-78
2024/04/06 09:15:49;;;;;;;0.93;0.50;;;19.00;10.10;;;;;;4985462;28;20061;-78
2024/04/06 09:18:18;;;;;;;1.13;0.60;;;19.00;10.20;;;;;;4985266;28;20057;-78
2024/04/06 09:20:51;;;;;;;0.50;0.50;;;19.10;23.20;;;;;;5001651;28;20115;-78
2024/04/06 09:23:17;;;;;;;1.15;0.60;;;19.10;26.10;;;;;;4984779;28;20061;-79
2024/04/06 09:25:43;;;;;;;1.17;0.70;;;19.20;20.00;;;;;;5001481;28;20088;-82
2024/04/06 09:28:13;;;;;;;0.90;0.50;;;19.10;23.00;;;;;;4970852;28;20061;-86
2024/04/06 09:30:42;;;;;;;1.48;0.70;;;19.20;22.40;;;;;;4984578;28;20069;-84
2024/04/06 09:33:08;;;;;;;0.47;0.47;;;19.20;15.10;;;;;;4990446;28;20064;-83
2024/04/06 09:35:35;;;;;;;0.50;0.47;;;19.30;66.70;;;;;;4986251;28;20077;-84
2024/04/06 09:38:01;;;;;;;1.10;0.70;;;19.40;79.60;;;;;;4969826;28;20069;-84
2024/04/06 09:40:27;;;;;;;0.77;0.60;;;19.40;17.00;;;;;;4969464;28;20088;-84
2024/04/06 09:42:53;;;;;;;0.73;0.50;;;19.50;36.20;;;;;;4969656;28;20050;-84
2024/04/06 09:45:19;;;;;;;2.03;0.70;;;19.60;73.50;;;;;;4966968;28;20054;-83
2024/04/06 09:47:45;;;;;;;1.23;0.70;;;19.60;74.20;;;;;;4983333;28;20050;-84
2024/04/06 09:50:11;;;;;;;1.60;0.70;;;19.60;56.00;;;;;;4988440;28;20106;-83
2024/04/06 09:52:37;;;;;;;1.63;0.80;;;19.60;87.50;;;;;;5004771;28;20061;-84
2024/04/06 09:55:03;;;;;;;0.63;0.57;;;19.70;90.60;;;;;;4989793;28;20084;-82
2024/04/06 09:57:29;;;;;;;0.85;0.55;;;19.80;99.90;;;;;;4990194;28;20501;-84
2024/04/06 10:00:06;;;;;;;0.90;0.60;;;19.90;99.90;;;;;;4989902;28;20058;-83
2024/04/06 10:02:32;;;;;;;1.50;1.25;;;20.00;99.90;;;;;;4990366;28;20445;-83
2024/04/06 10:05:05;;;;;;;2.00;0.73;;;20.10;96.00;;;;;;4989538;28;20406;-85
2024/04/06 10:07:32;;;;;;;0.80;0.60;;;20.10;97.40;;;;;;5006767;28;20053;-84
2024/04/06 10:10:07;;;;;;;1.42;0.60;;;20.10;63.80;;;;;;5005746;28;20080;-83
2024/04/06 10:12:51;;;;;;;0.60;0.50;;;20.00;83.80;;;;;;5006134;28;20061;-84
2024/04/06 10:15:18;;;;;;;2.25;0.95;;;20.10;80.50;;;;;;5006476;28;20057;-83
2024/04/06 10:17:49;;;;;;;0.52;0.47;;;20.00;91.30;;;;;;4989640;28;20056;-84
2024/04/06 10:20:22;;;;;;;1.67;0.63;;;20.00;99.90;;;;;;4973727;28;20100;-83
2024/04/06 10:22:53;;;;;;;1.30;0.52;;;19.90;78.70;;;;;;4988912;28;20057;-83
2024/04/06 10:25:26;;;;;;;1.25;0.60;;;20.00;76.20;;;;;;4988727;28;20424;-83
2024/04/06 10:28:02;;;;;;;0.70;0.65;;;20.00;99.90;;;;;;4974360;28;20115;-84
2024/04/06 10:30:28;;;;;;;1.55;0.68;;;20.20;99.90;;;;;;4989866;28;20052;-82
2024/04/06 10:32:55;;;;;;;1.55;0.60;;;20.20;92.40;;;;;;5005131;28;20057;-83
2024/04/06 10:35:21;;;;;;;1.27;0.65;;;20.30;50.40;;;;;;4989149;28;20390;-82
2024/04/06 10:37:47;;;;;;;2.13;0.70;;;20.40;85.50;;;;;;4972412;28;20057;-83
2024/04/06 10:40:13;;;;;;;1.55;0.60;;;20.50;52.60;;;;;;4989203;28;20068;-84
2024/04/06 10:42:40;;;;;;;0.82;0.40;;;20.70;34.20;;;;;;4989864;28;20061;-84
2024/04/06 10:45:08;;;;;;;0.55;0.47;;;20.80;99.90;;;;;;5006664;28;20050;-83
2024/04/06 10:47:34;;;;;;;1.17;0.60;;;21.00;96.60;;;;;;4991912;28;20123;-84
2024/04/06 10:50:00;;;;;;;1.60;0.75;;;21.20;97.90;;;;;;4975297;28;20057;-83
2024/04/06 10:52:28;;;;;;;0.85;0.50;;;21.30;92.40;;;;;;4975226;28;20072;-84
2024/04/06 10:54:54;;;;;;;1.30;0.60;;;21.40;94.00;;;;;;4975198;28;20065;-83
2024/04/06 10:57:22;;;;;;;1.50;0.95;;;21.40;75.40;;;;;;5007091;28;20444;-84
2024/04/06 10:59:48;;;;;;;0.98;0.50;;;21.40;83.20;;;;;;4991976;28;20048;-84
2024/04/06 11:02:15;;;;;;;2.78;1.25;;;21.40;78.00;;;;;;5007499;28;20049;-84
2024/04/06 11:04:43;;;;;;;2.45;0.90;;;21.30;76.40;;;;;;4991502;28;20529;-84
2024/04/06 11:07:10;;;;;;;1.70;0.82;;;21.20;74.00;;;;;;4990930;28;20053;-84
2024/04/06 11:09:36;;;;;;;0.98;0.60;;;21.00;64.50;;;;;;4990889;28;20057;-84
2024/04/06 11:12:02;;;;;;;2.30;0.60;;;21.00;66.90;;;;;;5007449;28;20534;-85
2024/04/06 11:14:29;;;;;;;1.10;0.50;;;20.90;60.90;;;;;;5008042;28;20517;-83
2024/04/06 11:16:55;;;;;;;1.38;0.80;;;20.80;80.70;;;;;;5007535;28;20115;-85
2024/04/06 11:19:24;;;;;;;1.42;0.80;;;20.70;89.30;;;;;;4991422;28;20132;-83
2024/04/06 11:21:50;;;;;;;1.15;0.57;;;20.50;93.80;;;;;;4974659;28;20065;-84
2024/04/06 11:24:16;;;;;;;1.08;0.57;;;20.50;77.80;;;;;;4990422;28;20886;-84
2024/04/06 11:26:41;;;;;;;1.33;0.60;;;20.70;91.70;;;;;;4990012;28;20053;-83
2024/04/06 11:29:10;;;;;;;0.95;0.57;;;20.70;99.50;;;;;;4991473;28;20099;-83
2024/04/06 11:31:36;;;;;;;1.35;0.63;;;20.60;98.20;;;;;;4991684;28;20050;-83
2024/04/06 11:34:02;;;;;;;0.80;0.50;;;20.50;99.90;;;;;;5006837;28;20131;-84
2024/04/06 11:36:29;;;;;;;1.88;0.80;;;20.50;99.40;;;;;;5006079;28;20649;-83
2024/04/06 11:38:56;;;;;;;0.82;0.60;;;20.50;93.40;;;;;;4974593;28;20164;-84
2024/04/06 11:41:21;;;;;;;1.35;0.90;;;20.40;84.50;;;;;;4991008;28;20507;-85
2024/04/06 11:43:47;;;;;;;1.25;0.80;;;20.40;92.60;;;;;;4972069;28;20054;-84
2024/04/06 11:46:13;;;;;;;2.53;1.00;;;20.40;90.10;;;;;;4990635;28;20128;-84
2024/04/06 11:48:39;;;;;;;0.98;0.63;;;20.40;92.30;;;;;;5007160;28;20053;-84
2024/04/06 11:51:05;;;;;;;1.58;0.80;;;20.40;92.00;;;;;;4974026;28;20065;-84
2024/04/06 11:53:35;;;;;;;1.02;0.60;;;20.70;98.40;;;;;;4973435;28;20056;-83
2024/04/06 11:56:02;;;;;;;1.00;0.65;;;20.90;92.90;;;;;;4991680;28;20069;-83
2024/04/06 11:58:28;;;;;;;0.82;0.50;;;21.20;68.20;;;;;;4973709;28;20053;-83
2024/04/06 12:00:54;;;;;;;1.00;0.63;;;21.30;89.60;;;;;;5006683;28;20064;-83
2024/04/06 12:03:20;;;;;;;0.82;0.50;;;21.30;91.50;;;;;;5006453;28;20114;-84
2024/04/06 12:05:46;;;;;;;1.23;0.50;;;21.40;94.40;;;;;;5006724;28;20437;-83
2024/04/06 12:08:12;;;;;;;1.83;0.65;;;21.50;92.50;;;;;;5006924;28;20061;-84
2024/04/06 12:10:38;;;;;;;1.35;0.80;;;21.60;82.70;;;;;;5006562;28;20485;-85
2024/04/06 12:13:04;;;;;;;1.08;0.55;;;21.60;92.60;;;;;;5022567;28;20045;-83
2024/04/06 12:15:30;;;;;;;1.23;0.73;;;21.70;99.90;;;;;;4989369;28;20366;-84
2024/04/06 12:17:56;;;;;;;1.02;0.60;;;21.80;85.60;;;;;;5006653;28;20587;-85
2024/04/06 12:20:22;;;;;;;1.90;0.77;;;21.90;98.80;;;;;;5007164;28;20065;-84
2024/04/06 12:22:48;;;;;;;1.77;0.90;;;22.00;90.30;;;;;;4985929;28;20057;-83
2024/04/06 12:25:14;;;;;;;1.67;0.75;;;22.00;99.90;;;;;;5021354;28;20046;-83
2024/04/06 12:27:40;;;;;;;1.55;0.80;;;22.00;96.40;;;;;;5022648;28;20057;-83
2024/04/06 12:30:11;;;;;;;2.38;1.13;;;21.80;98.40;;;;;;4990111;28;20080;-84
2024/04/06 12:32:37;;;;;;;1.40;0.77;;;21.60;92.30;;;;;;4975316;28;20103;-84
2024/04/06 12:35:03;;;;;;;1.25;0.80;;;21.70;95.40;;;;;;4972388;28;20500;-84
2024/04/06 12:37:29;;;;;;;2.15;0.93;;;21.70;85.90;;;;;;4971071;28;20064;-84
2024/04/06 12:39:55;;;;;;;1.60;1.05;;;21.70;91.90;;;;;;4987457;28;20093;-84
2024/04/06 12:42:21;;;;;;;1.40;0.80;;;21.80;90.00;;;;;;5021766;28;20065;-83
2024/04/06 12:44:47;;;;;;;1.77;0.73;;;21.70;99.90;;;;;;5005679;28;20050;-84